createdAt,value
2016-10-01T00:04:55.243Z,1006.09
2016-10-01T00:09:51.907Z,1006.16
2016-10-01T00:14:49.130Z,1006.14
2016-10-01T00:19:45.944Z,1006.06
2016-10-01T00:24:42.600Z,1006.00
2016-10-01T00:29:38.964Z,1005.87
2016-10-01T00:34:36.038Z,1005.90
2016-10-01T00:39:32.601Z,1005.79
2016-10-01T00:44:28.990Z,1005.71
2016-10-01T00:49:25.806Z,1005.64
2016-10-01T00:54:23.396Z,1005.67
2016-10-01T00:59:19.951Z,1005.57
2016-10-01T01:04:17.371Z,1005.56
2016-10-01T01:09:14.380Z,1005.44
2016-10-01T01:14:10.861Z,1005.30
2016-10-01T01:19:08.381Z,1005.22
2016-10-01T01:24:04.605Z,1005.11
2016-10-01T01:29:02.557Z,1005.12
2016-10-01T01:33:59.305Z,1005.09
2016-10-01T01:38:55.703Z,1005.04
2016-10-01T01:43:52.307Z,1005.02
2016-10-01T01:48:49.229Z,1005.09
2016-10-01T01:53:45.621Z,1005.03
2016-10-01T01:58:41.835Z,1004.93
2016-10-01T02:03:38.720Z,1004.84
2016-10-01T02:08:35.146Z,1004.88
2016-10-01T02:13:31.296Z,1004.78
2016-10-01T02:18:27.757Z,1004.70
2016-10-01T02:23:24.738Z,1004.66
2016-10-01T02:28:21.279Z,1004.62
2016-10-01T02:33:17.700Z,1004.61
2016-10-01T02:38:14.654Z,1004.60
2016-10-01T02:43:15.655Z,1004.48
2016-10-01T02:48:13.627Z,1004.49
2016-10-01T02:53:09.877Z,1004.55
2016-10-01T02:58:06.716Z,1004.41
2016-10-01T03:03:04.130Z,1004.25
2016-10-01T03:08:01.016Z,1004.37
2016-10-01T03:12:57.217Z,1004.23
2016-10-01T03:17:53.824Z,1004.16
2016-10-01T03:22:50.549Z,1004.13
2016-10-01T03:27:48.801Z,1004.01
2016-10-01T03:32:45.086Z,1003.93
2016-10-01T03:37:43.001Z,1003.85
2016-10-01T03:42:39.169Z,1003.74
2016-10-01T03:47:36.031Z,1003.90
2016-10-01T03:52:32.603Z,1003.79
2016-10-01T03:57:30.453Z,1003.86
2016-10-01T04:02:26.647Z,1003.98
2016-10-01T04:07:23.258Z,1003.92
2016-10-01T04:12:19.607Z,1003.92
2016-10-01T04:17:17.086Z,1003.91
2016-10-01T04:22:13.623Z,1003.88
2016-10-01T04:27:16.330Z,1003.94
2016-10-01T04:32:11.825Z,1003.80
2016-10-01T04:37:09.881Z,1003.70
2016-10-01T04:42:05.818Z,1003.63
2016-10-01T04:47:02.303Z,1003.60
2016-10-01T04:51:59.353Z,1003.64
2016-10-01T04:56:56.177Z,1003.54
2016-10-01T05:01:52.715Z,1003.64
2016-10-01T05:06:49.446Z,1003.52
2016-10-01T05:11:46.616Z,1003.58
2016-10-01T05:16:43.182Z,1003.69
2016-10-01T05:21:40.428Z,1003.71
2016-10-01T05:26:37.252Z,1003.63
2016-10-01T05:31:34.080Z,1003.70
2016-10-01T05:36:30.738Z,1003.56
2016-10-01T05:41:27.533Z,1003.64
2016-10-01T05:46:24.367Z,1003.67
2016-10-01T05:51:21.176Z,1003.64
2016-10-01T05:56:17.985Z,1003.68
2016-10-01T06:01:14.540Z,1003.66
2016-10-01T06:06:10.832Z,1003.78
2016-10-01T06:11:07.756Z,1003.75
2016-10-01T06:16:04.454Z,1003.69
2016-10-01T06:21:01.334Z,1003.63
2016-10-01T06:25:58.092Z,1003.55
2016-10-01T06:30:56.950Z,1003.59
2016-10-01T06:35:53.636Z,1003.43
2016-10-01T06:40:50.415Z,1003.37
2016-10-01T06:45:47.301Z,1003.37
2016-10-01T06:50:43.792Z,1003.30
2016-10-01T06:55:40.506Z,1003.33
2016-10-01T07:00:37.262Z,1003.38
2016-10-01T07:05:34.615Z,1003.51
2016-10-01T07:15:31.521Z,1003.42
2016-10-01T07:20:28.075Z,1003.31
2016-10-01T07:25:24.677Z,1003.33
2016-10-01T07:30:21.489Z,1003.28
2016-10-01T07:35:19.123Z,1003.29
2016-10-01T07:40:15.807Z,1003.21
2016-10-01T07:45:12.605Z,1003.30
2016-10-01T07:50:09.204Z,1003.26
2016-10-01T07:55:05.623Z,1003.26
2016-10-01T08:00:02.651Z,1003.32
2016-10-01T08:04:59.191Z,1003.15
2016-10-01T08:09:56.272Z,1003.29
2016-10-01T08:14:53.110Z,1003.22
2016-10-01T08:19:50.906Z,1003.30
2016-10-01T08:24:47.323Z,1003.12
2016-10-01T08:29:43.945Z,1003.14
2016-10-01T08:34:40.622Z,1002.98
2016-10-01T08:39:37.197Z,1003.05
2016-10-01T08:44:34.980Z,1003.07
2016-10-01T08:49:31.124Z,1003.15
2016-10-01T08:54:27.691Z,1003.02
2016-10-01T08:59:24.590Z,1003.04
2016-10-01T09:04:21.069Z,1002.94
2016-10-01T09:09:17.797Z,1002.96
2016-10-01T09:14:14.634Z,1003.03
2016-10-01T09:19:11.399Z,1002.98
2016-10-01T09:24:08.253Z,1002.90
2016-10-01T09:29:05.554Z,1002.87
2016-10-01T09:34:02.180Z,1002.91
2016-10-01T09:39:00.074Z,1002.78
2016-10-01T09:43:56.508Z,1002.80
2016-10-01T09:48:53.492Z,1002.71
2016-10-01T09:53:50.118Z,1002.74
2016-10-01T09:58:47.005Z,1002.59
2016-10-01T10:03:43.603Z,1002.57
2016-10-01T10:08:41.955Z,1002.48
2016-10-01T10:13:38.713Z,1002.45
2016-10-01T10:18:38.331Z,1002.39
2016-10-01T10:23:35.178Z,1002.42
2016-10-01T10:28:31.277Z,1002.44
2016-10-01T10:33:29.149Z,1002.38
2016-10-01T10:38:25.920Z,1002.42
2016-10-01T10:43:22.127Z,1002.36
2016-10-01T10:48:20.400Z,1002.54
2016-10-01T10:53:17.188Z,1002.41
2016-10-01T10:58:14.038Z,1002.36
2016-10-01T11:03:11.779Z,1002.28
2016-10-01T11:08:07.760Z,1002.25
2016-10-01T11:13:04.604Z,1002.27
2016-10-01T11:18:01.329Z,1002.12
2016-10-01T11:23:00.800Z,1002.10
2016-10-01T11:27:57.265Z,1001.99
2016-10-01T11:32:53.039Z,1001.89
2016-10-01T11:37:51.154Z,1001.95
2016-10-01T11:42:48.029Z,1001.87
2016-10-01T11:47:45.192Z,1001.86
2016-10-01T11:52:40.923Z,1001.75
2016-10-01T11:57:37.068Z,1001.69
2016-10-01T12:02:32.765Z,1001.60
2016-10-01T12:07:28.565Z,1001.50
2016-10-01T12:12:25.547Z,1001.40
2016-10-01T12:17:23.003Z,1001.39
2016-10-01T12:22:19.320Z,1001.34
2016-10-01T12:27:17.016Z,1001.40
2016-10-01T12:32:13.457Z,1001.32
2016-10-01T12:37:10.230Z,1001.26
2016-10-01T12:42:06.735Z,1001.13
2016-10-01T12:47:03.526Z,1001.19
2016-10-01T12:52:00.152Z,1001.20
2016-10-01T13:02:03.253Z,1001.21
2016-10-01T13:07:00.030Z,1001.03
2016-10-01T13:11:56.918Z,1001.02
2016-10-01T13:16:53.340Z,1001.04
2016-10-01T13:21:49.479Z,1001.11
2016-10-01T13:26:45.952Z,1001.06
2016-10-01T13:31:42.334Z,1001.09
2016-10-01T13:36:39.153Z,1001.12
2016-10-01T13:41:35.867Z,1001.15
2016-10-01T13:46:32.945Z,1001.11
2016-10-01T13:51:29.268Z,1001.09
2016-10-01T13:56:26.149Z,1001.05
2016-10-01T14:01:22.874Z,1001.13
2016-10-01T14:06:19.541Z,1001.12
2016-10-01T14:11:16.199Z,1001.22
2016-10-01T14:16:12.908Z,1001.23
2016-10-01T14:21:09.418Z,1001.16
2016-10-01T14:26:05.945Z,1001.18
2016-10-01T14:31:02.396Z,1001.14
2016-10-01T14:35:58.968Z,1001.09
2016-10-01T14:40:56.473Z,1001.10
2016-10-01T14:45:52.484Z,1001.01
2016-10-01T14:50:49.127Z,1000.98
2016-10-01T14:55:45.840Z,1000.95
2016-10-01T15:00:42.558Z,1000.96
2016-10-01T15:05:41.069Z,1000.93
2016-10-01T15:10:37.777Z,1000.90
2016-10-01T15:15:35.008Z,1000.84
2016-10-01T15:20:32.144Z,1000.70
2016-10-01T15:25:29.452Z,1000.73
2016-10-01T15:30:28.007Z,1000.67
2016-10-01T15:35:24.193Z,1000.68
2016-10-01T15:40:20.618Z,1000.61
2016-10-01T15:45:18.347Z,1000.54
2016-10-01T15:50:14.932Z,1000.59
2016-10-01T15:55:12.314Z,1000.73
2016-10-01T16:00:08.460Z,1000.68
2016-10-01T16:05:05.187Z,1000.72
2016-10-01T16:10:01.934Z,1000.78
2016-10-01T16:14:58.920Z,1000.81
2016-10-01T16:19:55.482Z,1000.80
2016-10-01T16:24:52.043Z,1000.87
2016-10-01T16:29:48.562Z,1000.97
2016-10-01T16:34:45.034Z,1001.03
2016-10-01T16:39:41.538Z,1000.99
2016-10-01T16:44:38.167Z,1001.04
2016-10-01T16:49:35.255Z,1001.04
2016-10-01T16:54:31.711Z,1001.04
2016-10-01T16:59:27.938Z,1001.10
2016-10-01T17:04:24.721Z,1001.23
2016-10-01T17:09:21.572Z,1001.40
2016-10-01T17:14:17.954Z,1001.32
2016-10-01T17:19:14.665Z,1001.46
2016-10-01T17:24:11.513Z,1001.46
2016-10-01T17:29:08.172Z,1001.45
2016-10-01T17:34:06.079Z,1001.39
2016-10-01T17:39:02.223Z,1001.42
2016-10-01T17:43:58.897Z,1001.27
2016-10-01T17:48:55.365Z,1001.30
2016-10-01T17:53:51.871Z,1001.32
2016-10-01T18:03:44.882Z,1001.43
2016-10-01T18:08:42.540Z,1001.35
2016-10-01T18:13:38.846Z,1001.42
2016-10-01T18:18:35.362Z,1001.44
2016-10-01T18:23:31.930Z,1001.48
2016-10-01T18:28:28.483Z,1001.39
2016-10-01T18:33:25.756Z,1001.36
2016-10-01T18:38:22.186Z,1001.37
2016-10-01T18:43:18.711Z,1001.30
2016-10-01T18:48:15.339Z,1001.27
2016-10-01T18:53:12.224Z,1001.30
2016-10-01T18:58:08.705Z,1001.21
2016-10-01T19:03:05.005Z,1001.19
2016-10-01T19:08:01.753Z,1001.22
2016-10-01T19:12:58.930Z,1001.15
2016-10-01T19:17:55.448Z,1001.24
2016-10-01T19:22:51.895Z,1001.29
2016-10-01T19:27:48.797Z,1001.25
2016-10-01T19:32:44.875Z,1001.36
2016-10-01T19:37:41.451Z,1001.42
2016-10-01T19:42:37.971Z,1001.50
2016-10-01T19:47:34.571Z,1001.50
2016-10-01T19:52:31.186Z,1001.45
2016-10-01T19:57:27.760Z,1001.42
2016-10-01T20:02:24.666Z,1001.48
2016-10-01T20:07:21.382Z,1001.68
2016-10-01T20:12:17.940Z,1001.83
2016-10-01T20:17:14.425Z,1002.54
2016-10-01T20:22:11.534Z,1002.51
2016-10-01T20:27:08.319Z,1002.33
2016-10-01T20:32:04.837Z,1002.48
2016-10-01T20:37:01.497Z,1002.52
2016-10-01T20:41:58.343Z,1002.56
2016-10-01T20:46:55.472Z,1002.46
2016-10-01T20:51:52.557Z,1002.34
2016-10-01T20:56:49.013Z,1002.47
2016-10-01T21:01:45.301Z,1002.41
2016-10-01T21:06:41.839Z,1002.29
2016-10-01T21:11:38.156Z,1002.28
2016-10-01T21:16:34.841Z,1002.21
2016-10-01T21:21:31.183Z,1002.23
2016-10-01T21:26:27.741Z,1002.36
2016-10-01T21:31:24.283Z,1002.32
2016-10-01T21:36:20.770Z,1002.30
2016-10-01T21:41:18.072Z,1002.24
2016-10-01T21:46:14.908Z,1002.25
2016-10-01T21:51:11.040Z,1002.25
2016-10-01T21:56:07.416Z,1002.22
2016-10-01T22:01:04.083Z,1002.20
2016-10-01T22:06:00.578Z,1002.21
2016-10-01T22:10:57.443Z,1002.14
2016-10-01T22:15:53.933Z,1002.15
2016-10-01T22:20:50.517Z,1002.14
2016-10-01T22:25:46.813Z,1002.18
2016-10-01T22:30:43.275Z,1002.18
2016-10-01T22:35:40.120Z,1002.22
2016-10-01T22:40:37.945Z,1002.21
2016-10-01T22:45:34.946Z,1002.18
2016-10-01T22:50:31.498Z,1002.20
2016-10-01T22:55:28.160Z,1002.12
2016-10-01T23:00:24.809Z,1002.10
2016-10-01T23:05:21.733Z,1002.10
2016-10-01T23:10:18.356Z,1002.02
2016-10-01T23:15:15.014Z,1002.10
2016-10-01T23:20:11.379Z,1002.20
2016-10-01T23:25:08.064Z,1002.22
2016-10-01T23:30:04.726Z,1002.20
2016-10-01T23:35:01.243Z,1002.17
2016-10-01T23:39:57.875Z,1002.19
2016-10-01T23:44:54.565Z,1002.28
2016-10-01T23:49:52.225Z,1002.15
2016-10-01T23:54:48.888Z,1002.20
2016-10-01T23:59:46.769Z,1002.28
